Castlebar Airport

Jump to: basic info | weather | comments

Related pages: nearby airports | nearby navaids | notams | map

Basic information (top)

Codes: CLB EICB
Location: lon 53.848400, lat -9.280370
Status: small_airport

Weather (top)

Current conditions for Ireland West Knock Airport 17nm (31km) ENE (rec'd 2015/03/27 19:30Z):

EIKN 271930Z 14007KT 100V170 9999 OVC025 08/05 Q1013 NOSIG

Airport forecast for Ireland West Knock Airport 17nm (31km) ENE (rec'd 2015/03/27 18:24Z):

TAF EIKN 271700Z 2718/2818 14008KT 9999 SCT018 BKN028 
      BECMG 2718/2720 -RA BKN015 
      BECMG 2720/2722 16015KT 3000 -RA BKN005 
      TEMPO 2722/2806 0500 FG RADZ BKN001 
      BECMG 2800/2802 21020G32KT 
      TEMPO 2802/2807 22023G38KT 
      BECMG 2806/2808 27022G33KT 9999 NSW SCT017 BKN027 PROB30 
      TEMPO 2808/2815 5000 -RA BKN012 
      BECMG 2809/2812 27017G28KT 
      BECMG 2812/2815 25013KT 
      BECMG 2816/2818 22016G27KT 4000 -RA BKN008

Latest comments (top)

No longer exists.: This airport was closed in 2001 and the ... [read]

fv: fg [read]

More... (top)

See also NOTAMs and nearby airports and navaids, or visit the Castlebar Airport page at the main OurAirports website..